Time;durP1;ratioP1;P1;durP2;ratioP2;P2;SDS_P1;SDS_P2;PMS_P1;PMS_P2;Temp;Humidity;BMP_temperature;BMP_pressure;BME280_temperature;BME280_humidity;BME280_pressure;Samples;Min_cycle;Max_cycle;Signal;HPM_P1;HPM_P2
2022/08/05 00:00:18;;;;;;;;;;;;;;;19.53;75.43;101406.50;5078150;28;20440;-62
2022/08/05 00:02:44;;;;;;;;;;;;;;;19.54;75.46;101400.06;5070471;28;20410;-62
2022/08/05 00:05:09;;;;;;;;;;;;;;;19.56;75.43;101403.38;5068214;28;19936;-62
2022/08/05 00:07:35;;;;;;;;;;;;;;;19.56;75.43;101406.91;5060442;28;20395;-62
2022/08/05 00:10:00;;;;;;;;;;;;;;;19.56;75.79;101406.06;5064558;28;19932;-62
2022/08/05 00:12:25;;;;;;;;;;;;;;;19.53;75.55;101396.53;5063498;28;19931;-61
2022/08/05 00:14:50;;;;;;;;;;;;;;;19.51;76.24;101395.09;5062691;28;19935;-62
2022/08/05 00:17:15;;;;;;;;;;;;;;;19.48;75.51;101397.19;5074231;28;19924;-61
2022/08/05 00:19:41;;;;;;;;;;;;;;;19.53;75.66;101409.19;5064526;28;19924;-62
2022/08/05 00:22:06;;;;;;;;;;;;;;;19.57;75.85;101410.41;5074191;28;19923;-62
2022/08/05 00:24:31;;;;;;;;;;;;;;;19.60;75.73;101410.00;5064051;28;20321;-62
2022/08/05 00:26:58;;;;;;;;;;;;;;;19.60;77.72;101405.44;5059526;28;19924;-62
2022/08/05 00:29:23;;;;;;;;;;;;;;;19.57;75.61;101402.34;5066165;28;19924;-62
2022/08/05 00:31:48;;;;;;;;;;;;;;;19.57;75.73;101405.03;5067200;28;20283;-62
2022/08/05 00:34:13;;;;;;;;;;;;;;;19.58;75.72;101417.44;5067884;28;20011;-62
2022/08/05 00:36:39;;;;;;;;;;;;;;;19.58;75.96;101417.44;5063504;28;20015;-62
2022/08/05 00:39:04;;;;;;;;;;;;;;;19.60;75.72;101410.81;5065071;28;20368;-62
2022/08/05 00:41:30;;;;;;;;;;;;;;;19.65;75.77;101417.44;5059970;28;20022;-62
2022/08/05 00:43:55;;;;;;;;;;;;;;;19.65;76.22;101426.34;5065185;28;19925;-62
2022/08/05 00:46:21;;;;;;;;;;;;;;;19.60;76.52;101423.44;5069163;28;19935;-62
2022/08/05 00:48:46;;;;;;;;;;;;;;;19.53;76.05;101414.56;5063656;28;20346;-62
2022/08/05 00:51:11;;;;;;;;;;;;;;;19.45;77.27;101402.94;5064322;28;19932;-61
2022/08/05 00:53:36;;;;;;;;;;;;;;;19.32;78.21;101401.09;5064382;28;20455;-61
2022/08/05 00:56:02;;;;;;;;;;;;;;;19.18;79.29;101408.34;5065920;28;19925;-62
2022/08/05 00:58:27;;;;;;;;;;;;;;;19.19;78.57;101409.97;5068165;28;19924;-61
2022/08/05 01:00:52;;;;;;;;;;;;;;;19.12;78.66;101408.31;5067756;28;19947;-62
2022/08/05 01:03:17;;;;;;;;;;;;;;;19.09;78.70;101414.94;5070690;28;19936;-62
2022/08/05 01:05:43;;;;;;;;;;;;;;;19.09;79.31;101409.53;5064260;28;19924;-62
2022/08/05 01:08:08;;;;;;;;;;;;;;;19.02;79.99;101408.69;5064552;28;20708;-61
2022/08/05 01:10:35;;;;;;;;;;;;;;;19.09;79.71;101425.66;5062228;28;20023;-61
2022/08/05 01:13:05;;;;;;;;;;;;;;;19.08;79.85;101432.94;5074651;28;19924;-62
2022/08/05 01:15:33;;;;;;;;;;;;;;;19.04;79.65;101444.31;5066342;28;19934;-62
2022/08/05 01:18:08;;;;;;;;;;;;;;;19.02;79.63;101449.00;5066553;28;20375;-61
2022/08/05 01:20:39;;;;;;;;;;;;;;;19.01;79.63;101463.47;5067015;28;19924;-61
2022/08/05 01:23:23;;;;;;;;;;;;;;;19.05;79.41;101483.56;5065246;28;19952;-62
2022/08/05 01:26:07;;;;;;;;;;;;;;;19.06;79.26;101490.59;5064268;28;19924;-62
2022/08/05 01:28:44;;;;;;;;;;;;;;;19.10;79.10;101502.63;5064853;28;19924;-61
2022/08/05 01:31:18;;;;;;;;;;;;;;;19.14;80.25;101503.84;5061774;28;20113;-62
2022/08/05 01:34:04;;;;;;;;;;;;;;;19.11;79.86;101488.13;5065952;28;20299;-61
2022/08/05 01:36:35;;;;;;;;;;;;;;;18.98;81.32;101464.69;5036011;28;20371;-62
2022/08/05 01:39:00;;;;;;;;;;;;;;;18.90;80.89;101459.53;5080463;28;20046;-62
2022/08/05 01:41:26;;;;;;;;;;;;;;;18.91;80.76;101466.56;5064090;28;20489;-62
2022/08/05 01:43:52;;;;;;;;;;;;;;;18.93;80.35;101475.22;5063142;28;19931;-61
2022/08/05 01:46:18;;;;;;;;;;;;;;;18.98;80.31;101478.13;5067222;28;19924;-61
2022/08/05 01:48:45;;;;;;;;;;;;;;;19.00;79.92;101486.00;5060325;28;19924;-62
2022/08/05 01:51:11;;;;;;;;;;;;;;;19.02;80.07;101476.72;5070121;28;20444;-61
2022/08/05 01:53:37;;;;;;;;;;;;;;;19.07;80.47;101471.59;5066458;28;19932;-62
2022/08/05 01:56:03;;;;;;;;;;;;;;;19.11;79.62;101471.16;5066687;28;19931;-62
2022/08/05 01:58:30;;;;;;;;;;;;;;;19.13;80.54;101464.56;5071587;28;19924;-62
2022/08/05 02:00:57;;;;;;;;;;;;;;;19.16;80.14;101455.28;5051703;28;19993;-62
2022/08/05 02:03:24;;;;;;;;;;;;;;;19.16;80.90;101442.66;5075322;28;19978;-61
2022/08/05 02:05:50;;;;;;;;;;;;;;;19.12;79.38;101414.53;5066360;28;19924;-62
2022/08/05 02:08:16;;;;;;;;;;;;;;;19.15;79.53;101406.03;5066824;28;19954;-62
2022/08/05 02:10:43;;;;;;;;;;;;;;;19.17;79.53;101409.38;5066743;28;19928;-62
2022/08/05 02:13:14;;;;;;;;;;;;;;;19.12;79.29;101406.47;5067737;28;19924;-62
2022/08/05 02:15:58;;;;;;;;;;;;;;;19.10;80.23;101419.28;5071860;28;19924;-61
2022/08/05 02:18:25;;;;;;;;;;;;;;;19.06;80.09;101453.78;5078715;28;20019;-61
2022/08/05 02:20:52;;;;;;;;;;;;;;;19.05;79.63;101430.63;5079591;28;19974;-62
2022/08/05 02:23:21;;;;;;;;;;;;;;;19.07;79.95;101411.63;5068033;28;19931;-62
2022/08/05 02:25:48;;;;;;;;;;;;;;;19.11;80.34;101423.63;5067828;28;20364;-62
2022/08/05 02:28:14;;;;;;;;;;;;;;;18.98;79.87;101445.09;5069792;28;19925;-61
2022/08/05 02:30:45;;;;;;;;;;;;;;;18.99;79.96;101441.34;5068011;28;20002;-62
2022/08/05 02:33:14;;;;;;;;;;;;;;;19.01;79.53;101445.50;5058082;28;20019;-62
2022/08/05 02:35:40;;;;;;;;;;;;;;;19.06;79.48;101458.34;5067926;28;19925;-62
2022/08/05 02:38:06;;;;;;;;;;;;;;;19.07;79.48;101460.00;5068029;28;19924;-62
2022/08/05 02:40:32;;;;;;;;;;;;;;;19.09;79.52;101468.69;5067198;28;19959;-62
2022/08/05 02:42:57;;;;;;;;;;;;;;;19.01;79.22;101472.38;5056334;28;19978;-62
2022/08/05 02:45:24;;;;;;;;;;;;;;;19.01;79.29;101466.16;5064725;28;19986;-62
2022/08/05 02:47:50;;;;;;;;;;;;;;;19.01;79.62;101461.63;5065545;28;19924;-62
2022/08/05 02:50:16;;;;;;;;;;;;;;;18.99;79.62;101446.72;5066941;28;19925;-62
2022/08/05 02:52:43;;;;;;;;;;;;;;;18.96;79.65;101454.16;5062780;28;19929;-62
2022/08/05 02:55:08;;;;;;;;;;;;;;;18.92;79.44;101431.41;5064266;28;19978;-62
2022/08/05 02:57:34;;;;;;;;;;;;;;;18.90;79.47;101425.41;5067206;28;19920;-62
2022/08/05 02:59:59;;;;;;;;;;;;;;;18.91;79.42;101429.75;5067676;28;20410;-62
2022/08/05 03:02:30;;;;;;;;;;;;;;;18.93;79.38;101435.75;5066569;28;19924;-62
2022/08/05 03:04:56;;;;;;;;;;;;;;;18.91;79.52;101429.75;5066206;28;19935;-62
2022/08/05 03:07:22;;;;;;;;;;;;;;;18.91;79.55;101429.75;5066912;28;20330;-62
2022/08/05 03:09:47;;;;;;;;;;;;;;;18.94;79.42;101428.50;5067682;28;19928;-62
2022/08/05 03:12:28;;;;;;;;;;;;;;;18.86;79.47;101431.38;5077803;28;20700;-62
2022/08/05 03:14:53;;;;;;;;;;;;;;;18.85;79.28;101441.31;5066355;28;20010;-62
2022/08/05 03:17:18;;;;;;;;;;;;;;;18.92;79.73;101452.06;5066489;28;20015;-62
2022/08/05 03:19:43;;;;;;;;;;;;;;;18.92;79.89;101454.75;5065587;28;19928;-62
2022/08/05 03:22:08;;;;;;;;;;;;;;;18.84;80.07;101461.16;5066184;28;19982;-62
2022/08/05 03:24:34;;;;;;;;;;;;;;;18.82;79.59;101468.59;5065611;28;19986;-62
2022/08/05 03:26:59;;;;;;;;;;;;;;;18.83;79.56;101464.88;5066230;28;19924;-62
2022/08/05 03:29:25;;;;;;;;;;;;;;;18.80;79.55;101460.72;5065048;28;19982;-62
2022/08/05 03:31:50;;;;;;;;;;;;;;;18.77;79.56;101465.66;5064390;28;19975;-62
2022/08/05 03:34:15;;;;;;;;;;;;;;;18.77;79.94;101471.03;5066270;28;19928;-62
2022/08/05 03:36:41;;;;;;;;;;;;;;;18.77;80.20;101468.34;5072793;28;20375;-62
2022/08/05 03:39:06;;;;;;;;;;;;;;;18.76;79.76;101474.75;5071566;28;19935;-62
2022/08/05 03:41:32;;;;;;;;;;;;;;;18.77;79.79;101476.41;5071327;28;19951;-62
2022/08/05 03:43:58;;;;;;;;;;;;;;;18.72;80.12;101468.97;5064131;28;20756;-62
2022/08/05 03:46:23;;;;;;;;;;;;;;;18.67;80.16;101468.72;5064816;28;19978;-62
2022/08/05 03:48:48;;;;;;;;;;;;;;;18.63;80.31;101460.25;5066622;28;19967;-62
2022/08/05 03:51:20;;;;;;;;;;;;;;;18.60;80.17;101457.94;5065098;28;19924;-62
2022/08/05 03:53:51;;;;;;;;;;;;;;;18.59;80.74;101453.63;5060558;28;19974;-62
2022/08/05 03:56:24;;;;;;;;;;;;;;;18.61;80.05;101451.56;5072056;28;19924;-62
2022/08/05 03:58:49;;;;;;;;;;;;;;;18.63;79.89;101438.75;5071683;28;19924;-62
2022/08/05 04:01:16;;;;;;;;;;;;;;;18.66;79.80;101442.91;5062877;28;20415;-62
2022/08/05 04:03:43;;;;;;;;;;;;;;;18.65;79.93;101442.06;5073443;28;20031;-62
2022/08/05 04:06:08;;;;;;;;;;;;;;;18.69;79.68;101447.88;5064820;28;19970;-62
2022/08/05 04:08:34;;;;;;;;;;;;;;;18.74;79.96;101449.97;5068006;28;19924;-62
2022/08/05 04:11:00;;;;;;;;;;;;;;;18.73;79.86;101448.28;5063120;28;19964;-62
2022/08/05 04:13:27;;;;;;;;;;;;;;;18.73;80.38;101437.53;5065182;28;19931;-62
2022/08/05 04:15:52;;;;;;;;;;;;;;;18.69;79.59;101437.97;5061751;28;19924;-62
2022/08/05 04:18:17;;;;;;;;;;;;;;;18.71;79.26;101440.44;5072313;28;20528;-62
2022/08/05 04:20:43;;;;;;;;;;;;;;;18.72;79.46;101442.09;5060209;28;19924;-62
2022/08/05 04:23:09;;;;;;;;;;;;;;;18.72;79.86;101450.16;5060135;28;19924;-62
2022/08/05 04:25:34;;;;;;;;;;;;;;;18.69;80.08;101448.72;5063926;28;19931;-62
2022/08/05 04:27:59;;;;;;;;;;;;;;;18.63;79.75;101433.41;5057042;28;19928;-62
2022/08/05 04:30:24;;;;;;;;;;;;;;;18.60;79.70;101428.41;5069220;28;20002;-62
2022/08/05 04:32:50;;;;;;;;;;;;;;;18.60;79.57;101447.22;5074885;28;19924;-62
2022/08/05 04:35:15;;;;;;;;;;;;;;;18.62;79.39;101442.47;5070064;28;19928;-62
2022/08/05 04:37:40;;;;;;;;;;;;;;;18.62;79.58;101445.16;5076975;28;20847;-61
2022/08/05 04:40:06;;;;;;;;;;;;;;;18.63;79.73;101465.63;5070106;28;20705;-62
2022/08/05 04:42:31;;;;;;;;;;;;;;;18.63;79.55;101465.63;5063919;28;19924;-62
2022/08/05 04:44:56;;;;;;;;;;;;;;;18.60;80.21;101471.38;5066155;28;19924;-62
2022/08/05 04:47:21;;;;;;;;;;;;;;;18.55;80.27;101465.78;5062140;28;20287;-61
2022/08/05 04:49:47;;;;;;;;;;;;;;;18.47;80.18;101465.94;5066041;28;19925;-62
2022/08/05 04:52:13;;;;;;;;;;;;;;;18.42;80.42;101453.94;5055771;28;20008;-62
2022/08/05 04:54:38;;;;;;;;;;;;;;;18.39;80.36;101459.72;5057352;28;20625;-62
2022/08/05 04:57:03;;;;;;;;;;;;;;;18.38;80.16;101460.75;5065592;28;20757;-62
2022/08/05 04:59:29;;;;;;;;;;;;;;;18.38;81.14;101465.28;5082102;28;19924;-62
2022/08/05 05:01:54;;;;;;;;;;;;;;;18.39;80.11;101458.88;5063536;28;19924;-62
2022/08/05 05:04:19;;;;;;;;;;;;;;;18.41;80.55;101463.03;5066147;28;19935;-62
2022/08/05 05:06:45;;;;;;;;;;;;;;;18.44;80.28;101463.69;5062207;28;19924;-62
2022/08/05 05:09:10;;;;;;;;;;;;;;;18.41;80.79;101470.28;5061213;28;20850;-62
2022/08/05 05:11:36;;;;;;;;;;;;;;;18.40;80.40;101469.44;5067530;28;20011;-62
2022/08/05 05:14:02;;;;;;;;;;;;;;;18.44;80.74;101466.38;5058542;28;19928;-62
2022/08/05 05:16:27;;;;;;;;;;;;;;;18.53;80.05;101462.47;5054709;28;19928;-62
2022/08/05 05:18:52;;;;;;;;;;;;;;;18.48;80.58;101472.97;5061541;28;19925;-62
2022/08/05 05:21:17;;;;;;;;;;;;;;;18.51;79.69;101469.91;5063803;28;19932;-60
2022/08/05 05:23:43;;;;;;;;;;;;;;;18.53;79.73;101466.00;5071423;28;19924;-59
2022/08/05 05:26:08;;;;;;;;;;;;;;;18.51;79.93;101468.03;5069813;28;20503;-61
2022/08/05 05:28:33;;;;;;;;;;;;;;;18.53;79.85;101482.09;5074202;28;19959;-60
2022/08/05 05:30:58;;;;;;;;;;;;;;;18.51;79.98;101472.59;5067697;28;20014;-61
2022/08/05 05:33:24;;;;;;;;;;;;;;;18.48;79.77;101481.03;5065689;28;20031;-60
2022/08/05 05:35:49;;;;;;;;;;;;;;;18.42;79.93;101480.78;5062806;28;19934;-61
2022/08/05 05:38:15;;;;;;;;;;;;;;;18.44;80.15;101493.22;5072789;28;19952;-60
2022/08/05 05:40:41;;;;;;;;;;;;;;;18.42;79.80;101486.16;5080491;28;19968;-60
2022/08/05 05:43:06;;;;;;;;;;;;;;;18.46;80.33;101493.84;5071266;28;19924;-60
2022/08/05 05:45:31;;;;;;;;;;;;;;;18.42;80.74;101499.59;5065741;28;19924;-60
2022/08/05 05:47:58;;;;;;;;;;;;;;;18.41;80.19;101500.63;5067574;28;20558;-61
2022/08/05 05:50:23;;;;;;;;;;;;;;;18.47;80.22;101508.91;5072747;28;20379;-60
2022/08/05 05:52:48;;;;;;;;;;;;;;;18.49;80.28;101512.22;5068239;28;20031;-60
2022/08/05 05:55:14;;;;;;;;;;;;;;;18.39;80.46;101513.44;5065426;28;19925;-61
2022/08/05 05:57:40;;;;;;;;;;;;;;;18.36;80.75;101511.13;5068530;28;19917;-60
2022/08/05 06:00:10;;;;;;;;;;;;;;;18.38;81.05;101517.16;5066763;28;19931;-61
2022/08/05 06:02:35;;;;;;;;;;;;;;;18.28;81.02;101522.03;5065915;28;19925;-61
2022/08/05 06:05:01;;;;;;;;;;;;;;;18.28;81.30;101516.66;5066268;28;19936;-61
2022/08/05 06:07:26;;;;;;;;;;;;;;;18.28;81.45;101516.66;5076166;28;19920;-60
2022/08/05 06:09:51;;;;;;;;;;;;;;;18.27;81.25;101509.63;5068801;28;19930;-61
2022/08/05 06:12:16;;;;;;;;;;;;;;;18.32;81.32;101512.56;5069283;28;19924;-61
2022/08/05 06:14:43;;;;;;;;;;;;;;;18.21;81.58;101511.22;5074145;28;19925;-60
2022/08/05 06:17:08;;;;;;;;;;;;;;;18.24;81.28;101516.22;5085059;28;19924;-60
2022/08/05 06:19:33;;;;;;;;;;;;;;;18.23;82.12;101514.56;5061638;28;19924;-61
2022/08/05 06:21:58;;;;;;;;;;;;;;;18.28;81.32;101511.28;5068751;28;20351;-60
2022/08/05 06:24:24;;;;;;;;;;;;;;;18.28;81.32;101511.28;5070738;28;19928;-60
2022/08/05 06:26:49;;;;;;;;;;;;;;;18.30;82.04;101519.97;5063668;28;20352;-60
2022/08/05 06:29:14;;;;;;;;;;;;;;;18.36;80.95;101519.19;5065417;28;19925;-60
2022/08/05 06:31:39;;;;;;;;;;;;;;;18.37;81.69;101520.88;5057165;28;20344;-61
2022/08/05 06:34:05;;;;;;;;;;;;;;;18.36;81.02;101521.06;5054241;28;19931;-60
2022/08/05 06:36:30;;;;;;;;;;;;;;;18.48;81.15;101524.00;5057005;28;20562;-61
2022/08/05 06:38:55;;;;;;;;;;;;;;;18.60;81.12;101533.16;5065631;28;19925;-61
2022/08/05 06:41:20;;;;;;;;;;;;;;;18.62;81.15;101535.66;5060994;28;20621;-61
2022/08/05 06:43:46;;;;;;;;;;;;;;;18.57;80.95;101530.88;5065026;28;19924;-59
2022/08/05 06:46:12;;;;;;;;;;;;;;;18.54;81.89;101536.63;5060674;28;19925;-60
2022/08/05 06:48:37;;;;;;;;;;;;;;;18.49;81.30;101541.75;5062815;28;19925;-60
2022/08/05 06:51:03;;;;;;;;;;;;;;;18.45;81.50;101548.56;5067274;28;20283;-64
2022/08/05 06:53:28;;;;;;;;;;;;;;;18.50;81.21;101552.31;5061779;28;19924;-60
2022/08/05 06:55:53;;;;;;;;;;;;;;;18.51;81.10;101561.22;5069056;28;19924;-60
2022/08/05 06:58:18;;;;;;;;;;;;;;;18.53;81.50;101562.69;5067212;28;20395;-60
2022/08/05 07:00:44;;;;;;;;;;;;;;;18.54;81.15;101568.84;5072283;28;19932;-60
2022/08/05 07:03:09;;;;;;;;;;;;;;;18.55;80.57;101565.16;5067361;28;20395;-60
2022/08/05 07:05:34;;;;;;;;;;;;;;;18.59;80.78;101566.41;5070832;28;19935;-60
2022/08/05 07:08:00;;;;;;;;;;;;;;;18.62;80.66;101571.41;5066015;28;19936;-60
2022/08/05 07:10:25;;;;;;;;;;;;;;;18.67;80.54;101568.97;5066164;28;19952;-60
2022/08/05 07:18:18;;;;;;;;;;;;;;;18.72;80.15;101575.59;5076282;28;20070;-60
2022/08/05 07:20:43;;;;;;;;;;;;;;;18.76;80.32;101576.84;5066524;28;20422;-60
2022/08/05 07:23:08;;;;;;;;;;;;;;;18.83;80.10;101583.09;5070593;28;19940;-60
2022/08/05 07:25:33;;;;;;;;;;;;;;;18.88;80.05;101590.53;5066203;28;19958;-60
2022/08/05 07:27:59;;;;;;;;;;;;;;;19.00;79.98;101593.50;5066514;28;19968;-60
2022/08/05 07:30:24;;;;;;;;;;;;;;;19.08;79.52;101591.50;5074240;28;20638;-60
2022/08/05 07:32:49;;;;;;;;;;;;;;;19.20;79.43;101599.00;5070494;28;19928;-59
2022/08/05 07:35:14;;;;;;;;;;;;;;;19.26;79.15;101608.97;5065642;28;19962;-60
2022/08/05 07:37:40;;;;;;;;;;;;;;;19.24;78.99;101608.31;5079890;28;19932;-60
2022/08/05 07:40:06;;;;;;;;;;;;;;;19.32;78.81;101612.69;5064956;28;19925;-60
2022/08/05 07:42:31;;;;;;;;;;;;;;;19.45;77.47;101607.34;5065168;28;19928;-60
2022/08/05 07:44:56;;;;;;;;;;;;;;;19.49;77.30;101611.31;5065294;28;19959;-60
2022/08/05 07:47:22;;;;;;;;;;;;;;;19.36;77.67;101608.56;5075352;28;20039;-61
2022/08/05 07:49:47;;;;;;;;;;;;;;;19.37;77.07;101610.22;5075374;28;20501;-60
2022/08/05 07:52:12;;;;;;;;;;;;;;;19.33;76.68;101615.19;5066820;28;19924;-59
2022/08/05 07:54:37;;;;;;;;;;;;;;;19.30;75.82;101615.56;5067550;28;19929;-60
2022/08/05 07:57:03;;;;;;;;;;;;;;;19.36;75.93;101622.03;5065329;28;20576;-61
2022/08/05 07:59:28;;;;;;;;;;;;;;;19.28;75.61;101616.84;5064864;28;19974;-60
2022/08/05 08:01:53;;;;;;;;;;;;;;;19.28;75.90;101622.22;5065764;28;19925;-60
2022/08/05 08:04:18;;;;;;;;;;;;;;;19.29;75.23;101629.25;5065134;28;19924;-60
2022/08/05 08:06:44;;;;;;;;;;;;;;;19.18;75.39;101628.78;5065756;28;19925;-60
2022/08/05 08:09:09;;;;;;;;;;;;;;;19.09;75.76;101628.13;5077245;28;19927;-61
2022/08/05 08:11:34;;;;;;;;;;;;;;;19.27;75.25;101631.28;5065549;28;20390;-60
2022/08/05 08:13:59;;;;;;;;;;;;;;;19.22;74.33;101635.41;5054440;28;19924;-60
2022/08/05 08:16:25;;;;;;;;;;;;;;;19.30;74.48;101636.28;5072194;28;19924;-61
2022/08/05 08:18:50;;;;;;;;;;;;;;;19.40;74.31;101636.72;5072847;28;20025;-60
2022/08/05 08:21:15;;;;;;;;;;;;;;;19.62;74.07;101633.88;5071900;28;19928;-60
2022/08/05 08:23:40;;;;;;;;;;;;;;;19.68;74.01;101633.06;5065826;28;19990;-61
2022/08/05 08:26:07;;;;;;;;;;;;;;;19.89;72.30;101650.94;5068945;28;20275;-60
2022/08/05 08:28:33;;;;;;;;;;;;;;;19.87;72.52;101662.94;5072616;28;19924;-60
2022/08/05 08:30:58;;;;;;;;;;;;;;;19.92;72.45;101660.47;5071216;28;20030;-61
2022/08/05 08:33:23;;;;;;;;;;;;;;;19.87;71.96;101665.63;5072107;28;19939;-60
2022/08/05 08:35:48;;;;;;;;;;;;;;;19.88;71.15;101667.28;5066684;28;19948;-61
2022/08/05 08:38:15;;;;;;;;;;;;;;;19.88;72.13;101664.56;5082590;28;19932;-61
2022/08/05 08:40:40;;;;;;;;;;;;;;;19.93;71.63;101662.09;5074604;28;20698;-61
2022/08/05 08:43:06;;;;;;;;;;;;;;;19.88;71.63;101664.56;5067370;28;19920;-60
2022/08/05 08:45:32;;;;;;;;;;;;;;;19.92;71.54;101671.22;5066060;28;19940;-60
2022/08/05 08:48:01;;;;;;;;;;;;;;;19.99;71.55;101671.28;5070281;28;20501;-60
2022/08/05 08:50:26;;;;;;;;;;;;;;;20.09;71.38;101678.94;5065492;28;19932;-61
2022/08/05 08:52:55;;;;;;;;;;;;;;;20.15;71.40;101678.97;5064772;28;20387;-60
2022/08/05 08:55:20;;;;;;;;;;;;;;;20.29;71.27;101687.88;5064341;28;19925;-60
2022/08/05 08:57:46;;;;;;;;;;;;;;;20.31;70.75;101695.75;5065553;28;20025;-60
2022/08/05 09:00:12;;;;;;;;;;;;;;;20.39;69.96;101697.41;5068988;28;19924;-60
2022/08/05 09:02:37;;;;;;;;;;;;;;;20.36;70.11;101693.28;5077337;28;19921;-60
2022/08/05 09:05:03;;;;;;;;;;;;;;;20.36;70.21;101704.03;5064952;28;19924;-61
2022/08/05 09:07:28;;;;;;;;;;;;;;;20.31;70.16;101705.72;5064133;28;20381;-61
2022/08/05 09:09:53;;;;;;;;;;;;;;;20.37;69.98;101710.28;5065710;28;19966;-61
2022/08/05 09:12:18;;;;;;;;;;;;;;;20.51;70.17;101709.22;5074854;28;19924;-60
2022/08/05 09:14:44;;;;;;;;;;;;;;;20.67;69.35;101699.91;5076391;28;20472;-61
2022/08/05 09:17:11;;;;;;;;;;;;;;;20.86;67.87;101702.00;5064857;28;19999;-61
2022/08/05 09:19:36;;;;;;;;;;;;;;;20.79;68.16;101708.19;5065395;28;19951;-60
2022/08/05 09:22:01;;;;;;;;;;;;;;;20.66;69.08;101705.50;5063455;28;19994;-61
2022/08/05 09:24:27;;;;;;;;;;;;;;;20.53;68.74;101715.22;5049072;28;19924;-60
2022/08/05 09:26:55;;;;;;;;;;;;;;;20.37;68.41;101712.97;5064782;28;19924;-61
2022/08/05 09:29:20;;;;;;;;;;;;;;;20.23;68.70;101721.00;5064060;28;19931;-60
2022/08/05 09:32:05;;;;;;;;;;;;;;;20.12;69.38;101730.53;5065370;28;19924;-60
2022/08/05 09:34:46;;;;;;;;;;;;;;;20.01;68.79;101733.81;5074914;28;19967;-60
2022/08/05 09:37:24;;;;;;;;;;;;;;;20.01;69.29;101734.66;5060897;28;19940;-61
2022/08/05 09:39:50;;;;;;;;;;;;;;;20.21;69.25;101727.63;5068744;28;19931;-60
2022/08/05 09:42:16;;;;;;;;;;;;;;;20.40;67.82;101731.41;5074921;28;19924;-61
2022/08/05 09:44:43;;;;;;;;;;;;;;;20.63;68.09;101724.78;5052346;28;19928;-61
2022/08/05 09:47:13;;;;;;;;;;;;;;;20.85;68.04;101727.28;5063195;28;20870;-61
2022/08/05 09:49:39;;;;;;;;;;;;;;;21.16;67.72;101733.88;5066778;28;19924;-61
2022/08/05 09:52:23;;;;;;;;;;;;;;;21.46;65.67;101738.78;5069505;28;20422;-61
2022/08/05 09:55:00;;;;;;;;;;;;;;;21.57;62.98;101735.41;5062940;28;20049;-61
2022/08/05 09:57:28;;;;;;;;;;;;;;;21.58;63.93;101737.06;5055116;28;19924;-61
2022/08/05 09:59:56;;;;;;;;;;;;;;;21.45;62.04;101737.94;5069398;28;20261;-61
2022/08/05 10:02:31;;;;;;;;;;;;;;;21.44;59.87;101741.69;5065159;28;20000;-61
2022/08/05 10:05:01;;;;;;;;;;;;;;;21.25;59.55;101743.38;5053270;28;20315;-61
2022/08/05 10:07:41;;;;;;;;;;;;;;;21.00;60.50;101741.38;5074791;28;20765;-61
2022/08/05 10:10:06;;;;;;;;;;;;;;;21.25;60.36;101745.28;5071536;28;19924;-61
2022/08/05 10:12:38;;;;;;;;;;;;;;;21.48;60.04;101747.47;5068034;28;19925;-61
2022/08/05 10:15:14;;;;;;;;;;;;;;;21.78;58.72;101746.97;5067782;28;19923;-61
2022/08/05 10:17:39;;;;;;;;;;;;;;;21.95;57.36;101746.50;5079256;28;20391;-61
2022/08/05 10:20:05;;;;;;;;;;;;;;;22.10;58.29;101744.31;5071971;28;19935;-61
2022/08/05 10:22:30;;;;;;;;;;;;;;;22.10;55.83;101749.72;5067651;28;19963;-61
2022/08/05 10:24:55;;;;;;;;;;;;;;;21.94;55.94;101756.44;5068161;28;19920;-61
2022/08/05 10:27:21;;;;;;;;;;;;;;;21.79;55.21;101756.72;5074683;28;20980;-61
2022/08/05 10:29:46;;;;;;;;;;;;;;;21.75;54.66;101760.91;5061304;28;19924;-61
2022/08/05 10:32:11;;;;;;;;;;;;;;;21.57;54.97;101762.38;5066555;28;19924;-61
2022/08/05 10:34:37;;;;;;;;;;;;;;;21.54;55.14;101767.38;5068018;28;20306;-60
2022/08/05 10:37:02;;;;;;;;;;;;;;;21.54;54.47;101768.22;5067502;28;20007;-61
2022/08/05 10:39:30;;;;;;;;;;;;;;;21.68;54.00;101763.59;5066864;28;20413;-61
2022/08/05 10:42:08;;;;;;;;;;;;;;;21.75;52.98;101763.59;5067987;28;19924;-61
2022/08/05 10:44:33;;;;;;;;;;;;;;;21.73;53.11;101765.69;5072824;28;19924;-61
2022/08/05 10:47:08;;;;;;;;;;;;;;;21.67;53.42;101766.50;5067282;28;19955;-61
2022/08/05 10:49:33;;;;;;;;;;;;;;;21.76;51.53;101770.66;5067682;28;20649;-61
2022/08/05 10:52:01;;;;;;;;;;;;;;;21.65;53.20;101769.41;5067318;28;19924;-61
2022/08/05 10:54:45;;;;;;;;;;;;;;;21.67;53.42;101771.91;5065317;28;20439;-61
2022/08/05 10:57:11;;;;;;;;;;;;;;;21.72;53.92;101764.03;5055833;28;19924;-61
2022/08/05 10:59:37;;;;;;;;;;;;;;;21.84;52.35;101778.53;5068522;28;19925;-61
2022/08/05 11:02:07;;;;;;;;;;;;;;;22.00;48.76;101776.38;5066782;28;19940;-60
2022/08/05 11:04:41;;;;;;;;;;;;;;;21.86;50.28;101781.81;5067237;28;19920;-61
2022/08/05 11:07:10;;;;;;;;;;;;;;;21.99;48.76;101790.91;5074374;28;19926;-61
2022/08/05 11:09:35;;;;;;;;;;;;;;;22.02;48.92;101785.09;5069958;28;19948;-60
2022/08/05 11:12:01;;;;;;;;;;;;;;;22.00;49.59;101795.28;5076484;28;20011;-61
2022/08/05 11:14:27;;;;;;;;;;;;;;;22.05;48.86;101787.34;5072032;28;19973;-61
2022/08/05 11:17:10;;;;;;;;;;;;;;;22.07;47.62;101792.53;5067163;28;20716;-61
2022/08/05 11:19:43;;;;;;;;;;;;;;;22.21;47.10;101787.88;5066054;28;19974;-61
2022/08/05 11:22:27;;;;;;;;;;;;;;;22.12;46.54;101792.72;5065012;28;19931;-61
2022/08/05 11:25:11;;;;;;;;;;;;;;;22.27;48.39;101798.66;5066819;28;20026;-60
2022/08/05 11:27:36;;;;;;;;;;;;;;;22.35;45.62;101794.03;5066478;28;19931;-61
2022/08/05 11:30:02;;;;;;;;;;;;;;;22.40;47.14;101797.75;5056395;28;20271;-61
2022/08/05 11:32:28;;;;;;;;;;;;;;;22.53;46.78;101801.44;5063977;28;20387;-61
2022/08/05 11:34:54;;;;;;;;;;;;;;;22.62;47.13;101793.88;5075159;28;19943;-61
2022/08/05 11:37:38;;;;;;;;;;;;;;;22.78;47.04;101795.22;5071131;28;19924;-61
2022/08/05 11:40:03;;;;;;;;;;;;;;;23.06;46.19;101807.47;5071142;28;20386;-61
2022/08/05 11:42:30;;;;;;;;;;;;;;;23.07;45.74;101814.53;5069889;28;20019;-61
2022/08/05 11:45:01;;;;;;;;;;;;;;;22.97;45.68;101818.56;5065421;28;19924;-61
2022/08/05 11:47:26;;;;;;;;;;;;;;;22.72;46.19;101815.84;5053403;28;19925;-61
2022/08/05 11:49:56;;;;;;;;;;;;;;;22.47;47.65;101818.50;5073945;28;19931;-61
2022/08/05 11:52:24;;;;;;;;;;;;;;;22.24;48.29;101825.25;5065225;28;19924;-61
2022/08/05 11:54:50;;;;;;;;;;;;;;;22.20;48.26;101834.88;5065522;28;20478;-61
2022/08/05 11:57:15;;;;;;;;;;;;;;;22.08;49.50;101846.34;5065981;28;19974;-61
2022/08/05 11:59:40;;;;;;;;;;;;;;;22.31;48.00;101839.59;5065446;28;19939;-61
2022/08/05 12:02:07;;;;;;;;;;;;;;;22.24;47.76;101842.31;5065354;28;20391;-61
2022/08/05 12:04:39;;;;;;;;;;;;;;;22.06;49.54;101847.59;5064970;28;19928;-61
2022/08/05 12:07:05;;;;;;;;;;;;;;;22.16;47.88;101856.88;5064968;28;19931;-61
2022/08/05 12:09:34;;;;;;;;;;;;;;;22.20;46.60;101865.38;5081406;28;19969;-61
2022/08/05 12:12:00;;;;;;;;;;;;;;;22.06;47.67;101867.34;5074309;28;19951;-61
2022/08/05 12:14:34;;;;;;;;;;;;;;;22.01;46.64;101859.84;5070634;28;20446;-61
2022/08/05 12:17:05;;;;;;;;;;;;;;;22.02;46.90;101866.09;5066718;28;19934;-60
2022/08/05 12:19:39;;;;;;;;;;;;;;;22.23;44.67;101864.97;5077979;28;20504;-61
2022/08/05 12:22:06;;;;;;;;;;;;;;;22.20;44.25;101880.78;5077868;28;19969;-61
2022/08/05 12:24:31;;;;;;;;;;;;;;;22.13;45.57;101883.50;5069319;28;19928;-61
2022/08/05 12:26:56;;;;;;;;;;;;;;;22.10;43.94;101879.34;5064841;28;19932;-61
2022/08/05 12:29:22;;;;;;;;;;;;;;;22.14;42.86;101895.97;5066600;28;20319;-61
2022/08/05 12:31:52;;;;;;;;;;;;;;;22.04;42.64;101901.81;5066122;28;19924;-61
2022/08/05 12:34:19;;;;;;;;;;;;;;;22.08;42.59;101908.47;5064742;28;19928;-61
2022/08/05 12:36:47;;;;;;;;;;;;;;;22.17;41.30;101904.47;5053868;28;19959;-61
2022/08/05 12:39:12;;;;;;;;;;;;;;;22.03;42.92;101895.59;5078786;28;20296;-61